createdAt,value
2019-01-04T00:00:19.899Z,16.73
2019-01-04T00:02:51.007Z,12.63
2019-01-04T00:05:20.411Z,18.17
2019-01-04T00:07:49.746Z,14.83
2019-01-04T00:10:19.318Z,17.77
2019-01-04T00:12:48.991Z,19.50
2019-01-04T00:15:18.654Z,14.10
2019-01-04T00:17:48.171Z,15.77
2019-01-04T00:20:17.839Z,14.43
2019-01-04T00:22:47.284Z,14.43
2019-01-04T00:25:16.735Z,13.73
2019-01-04T00:27:46.615Z,14.60
2019-01-04T00:30:15.975Z,14.40
2019-01-04T00:32:45.727Z,15.67
2019-01-04T00:35:15.263Z,20.20
2019-01-04T00:37:44.574Z,20.43
2019-01-04T00:40:13.920Z,12.50
2019-01-04T00:42:43.504Z,16.83
2019-01-04T00:45:12.914Z,14.27
2019-01-04T00:47:42.554Z,16.73
2019-01-04T00:50:12.174Z,21.23
2019-01-04T00:52:41.755Z,14.37
2019-01-04T00:55:14.534Z,17.07
2019-01-04T00:58:15.942Z,19.40
2019-01-04T01:01:06.462Z,15.03
2019-01-04T01:03:47.984Z,15.10
2019-01-04T01:06:43.744Z,14.13
2019-01-04T01:09:31.251Z,16.50
2019-01-04T01:12:29.906Z,14.77
2019-01-04T01:15:28.469Z,16.63
2019-01-04T01:18:34.434Z,16.03
2019-01-04T01:21:34.296Z,17.90
2019-01-04T01:24:29.497Z,19.00
2019-01-04T01:27:33.574Z,14.47
2019-01-04T01:30:17.718Z,19.87
2019-01-04T01:32:59.079Z,14.03
2019-01-04T01:35:37.318Z,14.17
2019-01-04T01:38:25.241Z,13.67
2019-01-04T01:41:10.120Z,15.17
2019-01-04T01:44:01.979Z,15.23
2019-01-04T01:46:47.485Z,15.33
2019-01-04T01:49:40.844Z,14.00
2019-01-04T01:52:22.803Z,13.67
2019-01-04T01:54:52.198Z,12.70
2019-01-04T01:57:21.503Z,14.53
2019-01-04T01:59:51.008Z,14.43
2019-01-04T02:02:20.305Z,13.07
2019-01-04T02:04:49.607Z,12.53
2019-01-04T02:07:19.165Z,12.50
2019-01-04T02:09:48.639Z,14.43
2019-01-04T02:12:18.003Z,12.20
2019-01-04T02:14:47.721Z,14.17
2019-01-04T02:17:17.147Z,13.53
2019-01-04T02:19:46.581Z,8.90
2019-01-04T02:22:16.010Z,11.80
2019-01-04T02:24:45.418Z,9.53
2019-01-04T02:27:14.961Z,12.60
2019-01-04T02:29:44.535Z,11.13
2019-01-04T02:32:13.935Z,11.17
2019-01-04T02:34:43.300Z,10.13
2019-01-04T02:37:12.804Z,8.17
2019-01-04T02:39:42.208Z,9.83
2019-01-04T02:42:11.960Z,8.07
2019-01-04T02:44:41.682Z,8.87
2019-01-04T02:47:11.116Z,13.07
2019-01-04T02:49:40.731Z,9.10
2019-01-04T02:52:10.175Z,11.43
2019-01-04T02:54:39.591Z,8.90
2019-01-04T02:57:09.008Z,7.23
2019-01-04T02:59:38.890Z,12.27
2019-01-04T03:02:11.828Z,10.27
2019-01-04T03:04:41.523Z,8.87
2019-01-04T03:07:11.014Z,7.47
2019-01-04T03:09:40.508Z,13.40
2019-01-04T03:12:10.308Z,9.97
2019-01-04T03:14:39.975Z,11.80
2019-01-04T03:17:09.623Z,13.00
2019-01-04T03:19:39.034Z,11.20
2019-01-04T03:22:08.648Z,12.97
2019-01-04T03:24:38.169Z,13.70
2019-01-04T03:27:08.193Z,10.33
2019-01-04T03:29:37.715Z,7.50
2019-01-04T03:32:09.469Z,10.57
2019-01-04T03:34:39.160Z,8.07
2019-01-04T03:37:08.479Z,10.13
2019-01-04T03:39:37.822Z,10.57
2019-01-04T03:42:07.438Z,9.37
2019-01-04T03:44:36.927Z,10.93
2019-01-04T03:47:06.536Z,9.70
2019-01-04T03:49:36.001Z,7.50
2019-01-04T03:52:05.577Z,6.67
2019-01-04T03:54:35.486Z,10.70
2019-01-04T03:57:05.104Z,8.80
2019-01-04T03:59:34.557Z,8.03
2019-01-04T04:02:05.615Z,9.20
2019-01-04T04:04:35.226Z,8.63
2019-01-04T04:07:05.992Z,7.77
2019-01-04T04:09:35.486Z,10.97
2019-01-04T04:12:04.942Z,13.87
2019-01-04T04:14:34.372Z,10.80
2019-01-04T04:17:03.700Z,9.10
2019-01-04T04:19:33.125Z,10.70
2019-01-04T04:22:02.809Z,11.17
2019-01-04T04:24:32.330Z,11.53
2019-01-04T04:27:01.927Z,12.20
2019-01-04T04:29:31.341Z,11.60
2019-01-04T04:32:00.824Z,11.63
2019-01-04T04:34:30.318Z,13.30
2019-01-04T04:36:59.718Z,11.93
2019-01-04T04:39:29.367Z,16.23
2019-01-04T04:41:58.875Z,12.07
2019-01-04T04:44:28.444Z,11.20
2019-01-04T04:46:57.906Z,12.60
2019-01-04T04:49:27.258Z,10.47
2019-01-04T04:51:56.676Z,10.60
2019-01-04T04:54:26.085Z,9.50
2019-01-04T04:56:55.849Z,11.60
2019-01-04T04:59:25.140Z,10.40
2019-01-04T05:01:54.755Z,10.80
2019-01-04T05:04:32.889Z,13.73
2019-01-04T05:06:58.719Z,10.87
2019-01-04T05:09:31.216Z,12.17
2019-01-04T05:12:00.686Z,16.10
2019-01-04T05:14:30.112Z,12.57
2019-01-04T05:16:59.511Z,14.27
2019-01-04T05:19:32.951Z,11.13
2019-01-04T05:22:02.524Z,13.00
2019-01-04T05:24:31.979Z,12.97
2019-01-04T05:27:01.719Z,13.47
2019-01-04T05:29:31.207Z,13.13
2019-01-04T05:32:00.524Z,10.70
2019-01-04T05:34:30.198Z,13.70
2019-01-04T05:36:59.694Z,12.27
2019-01-04T05:39:29.207Z,13.87
2019-01-04T05:41:59.160Z,12.07
2019-01-04T05:44:28.686Z,13.17
2019-01-04T05:46:58.214Z,15.43
2019-01-04T05:49:27.981Z,17.73
2019-01-04T05:51:58.396Z,13.03
2019-01-04T05:54:27.992Z,14.63
2019-01-04T05:56:57.534Z,15.70
2019-01-04T05:59:26.915Z,17.07
2019-01-04T06:01:56.723Z,15.80
2019-01-04T06:04:26.233Z,15.73
2019-01-04T06:06:55.863Z,14.70
2019-01-04T06:09:25.695Z,16.73
2019-01-04T06:11:55.075Z,15.87
2019-01-04T06:14:24.684Z,12.47
2019-01-04T06:16:54.337Z,17.80
2019-01-04T06:19:24.416Z,12.67
2019-01-04T06:21:53.915Z,12.83
2019-01-04T06:24:23.467Z,12.97
2019-01-04T06:26:52.742Z,18.87
2019-01-04T06:29:22.371Z,15.27
2019-01-04T06:31:51.668Z,12.73
2019-01-04T06:34:21.269Z,14.43
2019-01-04T06:36:50.647Z,18.53
2019-01-04T06:39:20.073Z,14.40
2019-01-04T06:41:49.510Z,23.87
2019-01-04T06:44:19.163Z,14.83
2019-01-04T06:47:08.662Z,13.57
2019-01-04T06:49:38.256Z,23.90
2019-01-04T06:52:07.940Z,20.73
2019-01-04T06:55:13.582Z,21.50
2019-01-04T06:57:43.063Z,16.80
2019-01-04T07:00:12.591Z,16.50
2019-01-04T07:02:42.721Z,17.20
2019-01-04T07:05:12.374Z,16.90
2019-01-04T07:07:41.981Z,19.87
2019-01-04T07:10:11.559Z,16.87
2019-01-04T07:12:40.944Z,17.50
2019-01-04T07:15:10.356Z,18.67
2019-01-04T07:17:39.712Z,15.87
2019-01-04T07:20:09.237Z,19.37
2019-01-04T07:22:38.603Z,19.90
2019-01-04T07:25:08.148Z,16.93
2019-01-04T07:27:38.022Z,21.97
2019-01-04T07:30:08.599Z,14.90
2019-01-04T07:32:37.987Z,21.97
2019-01-04T07:35:07.849Z,16.83
2019-01-04T07:37:37.383Z,17.20
2019-01-04T07:40:09.017Z,22.13
2019-01-04T07:42:38.909Z,23.37
2019-01-04T07:45:09.546Z,21.93
2019-01-04T07:47:39.247Z,23.50
2019-01-04T07:50:08.649Z,17.53
2019-01-04T07:52:38.184Z,24.67
2019-01-04T07:55:10.539Z,21.43
2019-01-04T07:57:40.113Z,24.37
2019-01-04T08:00:12.823Z,20.50
2019-01-04T08:02:43.218Z,22.77
2019-01-04T08:05:14.992Z,25.53
2019-01-04T08:07:44.511Z,22.73
2019-01-04T08:10:15.022Z,25.13
2019-01-04T08:12:44.627Z,19.63
2019-01-04T08:15:14.151Z,21.53
2019-01-04T08:17:44.788Z,22.43
2019-01-04T08:20:14.217Z,23.00
2019-01-04T08:22:43.575Z,24.37
2019-01-04T08:25:13.390Z,27.13
2019-01-04T08:27:42.911Z,23.73
2019-01-04T08:30:12.575Z,21.27
2019-01-04T08:32:42.042Z,21.30
2019-01-04T08:35:11.650Z,25.27
2019-01-04T08:37:41.092Z,21.87
2019-01-04T08:40:10.803Z,27.70
2019-01-04T08:42:40.312Z,24.33
2019-01-04T08:45:10.160Z,25.33
2019-01-04T08:47:39.511Z,20.70
2019-01-04T08:50:09.196Z,30.20
2019-01-04T08:52:38.889Z,25.00
2019-01-04T08:55:09.651Z,33.20
2019-01-04T08:57:39.240Z,25.60
2019-01-04T09:00:12.046Z,31.40
2019-01-04T09:02:41.544Z,34.47
2019-01-04T09:05:11.075Z,31.57
2019-01-04T09:07:40.553Z,32.17
2019-01-04T09:10:10.232Z,23.17
2019-01-04T09:12:39.634Z,28.33
2019-01-04T09:15:09.250Z,40.00
2019-01-04T09:17:38.655Z,25.87
2019-01-04T09:20:09.147Z,38.20
2019-01-04T09:22:38.745Z,40.53
2019-01-04T09:25:08.902Z,26.97
2019-01-04T09:27:38.960Z,29.80
2019-01-04T09:30:11.062Z,39.10
2019-01-04T09:32:41.521Z,37.93
2019-01-04T09:35:10.991Z,30.73
2019-01-04T09:37:40.352Z,29.47
2019-01-04T09:40:09.887Z,44.33
2019-01-04T09:42:39.366Z,40.67
2019-01-04T09:45:09.405Z,43.17
2019-01-04T09:47:39.162Z,37.30
2019-01-04T09:50:09.071Z,44.43
2019-01-04T09:52:38.631Z,36.57
2019-01-04T09:55:08.943Z,27.07
2019-01-04T09:57:38.651Z,38.83
2019-01-04T10:00:09.858Z,33.10
2019-01-04T10:02:39.197Z,33.73
2019-01-04T10:05:09.148Z,32.07
2019-01-04T10:07:41.659Z,28.67
2019-01-04T10:10:11.189Z,36.53
2019-01-04T10:12:40.870Z,33.73
2019-01-04T10:15:14.907Z,29.53
2019-01-04T10:17:44.285Z,32.00
2019-01-04T10:20:13.679Z,35.03
2019-01-04T10:22:43.125Z,27.50
2019-01-04T10:25:13.617Z,30.57
2019-01-04T10:27:43.093Z,28.10
2019-01-04T10:30:18.358Z,21.30
2019-01-04T10:32:47.799Z,31.77
2019-01-04T10:35:17.302Z,21.30
2019-01-04T10:37:46.611Z,24.20
2019-01-04T10:40:16.027Z,25.47
2019-01-04T10:42:45.478Z,26.00
2019-01-04T10:45:14.783Z,24.10
2019-01-04T10:47:45.223Z,27.03
2019-01-04T10:50:14.658Z,30.13
2019-01-04T10:52:44.062Z,33.50
2019-01-04T10:55:13.379Z,29.43
2019-01-04T10:57:42.834Z,39.03
2019-01-04T11:00:12.746Z,28.30
2019-01-04T11:02:42.210Z,43.87
2019-01-04T11:05:11.664Z,34.13
2019-01-04T11:07:41.519Z,39.27
2019-01-04T11:10:14.172Z,34.17
2019-01-04T11:12:44.856Z,32.87
2019-01-04T11:15:14.231Z,21.00
2019-01-04T11:17:43.615Z,32.43
2019-01-04T11:20:41.429Z,31.70
2019-01-04T11:23:43.100Z,36.43
2019-01-04T11:26:24.778Z,34.57
2019-01-04T11:29:03.267Z,36.57
2019-01-04T11:31:53.962Z,31.60
2019-01-04T11:34:32.207Z,29.90
2019-01-04T11:37:19.957Z,28.27
2019-01-04T11:40:12.131Z,35.57
2019-01-04T11:43:11.250Z,31.83
2019-01-04T11:45:46.973Z,31.60
2019-01-04T11:48:31.834Z,36.13
2019-01-04T11:51:13.370Z,24.80
2019-01-04T11:53:42.827Z,34.67
2019-01-04T11:56:12.200Z,32.33
2019-01-04T11:58:41.631Z,36.23
2019-01-04T12:01:11.149Z,31.93
2019-01-04T12:03:40.879Z,19.10
2019-01-04T12:06:10.317Z,22.17
2019-01-04T12:08:39.786Z,30.13
2019-01-04T12:11:09.402Z,49.73
2019-01-04T12:13:38.998Z,49.30
2019-01-04T12:16:08.404Z,46.97
2019-01-04T12:18:37.735Z,41.80
2019-01-04T12:21:07.128Z,41.17
2019-01-04T12:23:36.451Z,18.20
2019-01-04T12:26:05.854Z,40.60
2019-01-04T12:28:35.285Z,39.80
2019-01-04T12:31:04.690Z,34.77
2019-01-04T12:33:34.168Z,27.70
2019-01-04T12:36:05.334Z,29.93
2019-01-04T12:38:34.945Z,24.03
2019-01-04T12:41:04.332Z,25.53
2019-01-04T12:43:33.756Z,30.37
2019-01-04T12:46:03.204Z,17.20
2019-01-04T12:48:32.618Z,37.37
2019-01-04T12:51:02.118Z,19.40
2019-01-04T12:53:31.626Z,33.57
2019-01-04T12:56:01.057Z,31.30
2019-01-04T12:58:30.639Z,43.00
2019-01-04T13:00:59.963Z,43.80
2019-01-04T13:03:29.384Z,44.13
2019-01-04T13:05:58.807Z,46.03
2019-01-04T13:08:28.147Z,46.97
2019-01-04T13:10:57.934Z,50.43
2019-01-04T13:13:27.451Z,47.70
2019-01-04T13:15:56.819Z,46.10
2019-01-04T13:18:26.191Z,40.37
2019-01-04T13:20:55.748Z,58.40
2019-01-04T13:23:25.055Z,39.40
2019-01-04T13:25:54.567Z,48.30
2019-01-04T13:28:23.954Z,56.00
2019-01-04T13:30:53.338Z,61.87
2019-01-04T13:33:22.911Z,56.50
2019-01-04T13:35:52.386Z,52.93
2019-01-04T13:38:21.788Z,58.97
2019-01-04T13:40:51.219Z,41.07
2019-01-04T13:43:20.532Z,61.27
2019-01-04T13:45:50.021Z,30.73
2019-01-04T13:48:19.721Z,65.00
2019-01-04T13:50:50.239Z,65.73
2019-01-04T13:53:19.720Z,51.67
2019-01-04T13:55:49.339Z,49.47
2019-01-04T13:58:18.774Z,72.33
2019-01-04T14:00:48.236Z,68.03
2019-01-04T14:03:17.918Z,63.40
2019-01-04T14:05:47.845Z,64.83
2019-01-04T14:08:17.835Z,52.27
2019-01-04T14:10:47.289Z,63.90
2019-01-04T14:13:16.856Z,65.37
2019-01-04T14:15:46.370Z,34.43
2019-01-04T14:18:15.807Z,76.23
2019-01-04T14:20:45.487Z,57.13
2019-01-04T14:23:14.937Z,71.90
2019-01-04T14:25:44.238Z,58.70
2019-01-04T14:28:13.596Z,55.07
2019-01-04T14:30:43.048Z,53.30
2019-01-04T14:33:12.554Z,49.63
2019-01-04T14:35:41.986Z,60.83
2019-01-04T14:38:11.749Z,62.33
2019-01-04T14:40:41.145Z,67.43
2019-01-04T14:43:10.695Z,57.53
2019-01-04T14:45:40.107Z,47.53
2019-01-04T14:48:09.644Z,52.60
2019-01-04T14:50:39.081Z,56.93
2019-01-04T14:53:08.496Z,49.83
2019-01-04T14:55:38.152Z,46.43
2019-01-04T14:58:07.679Z,53.37
2019-01-04T15:00:37.119Z,52.70
2019-01-04T15:03:06.511Z,35.23
2019-01-04T15:05:36.148Z,57.73
2019-01-04T15:08:05.533Z,57.27
2019-01-04T15:10:36.331Z,40.30
2019-01-04T15:13:05.704Z,36.73
2019-01-04T15:15:35.200Z,31.63
2019-01-04T15:18:04.518Z,36.93
2019-01-04T15:20:33.979Z,55.80
2019-01-04T15:23:03.706Z,32.70
2019-01-04T15:25:33.238Z,42.40
2019-01-04T15:28:02.674Z,52.10
2019-01-04T15:30:33.913Z,56.43
2019-01-04T15:33:03.333Z,61.00
2019-01-04T15:35:32.734Z,70.33
2019-01-04T15:38:02.248Z,42.47
2019-01-04T15:40:31.839Z,33.17
2019-01-04T15:43:01.347Z,41.87
2019-01-04T15:45:30.835Z,39.60
2019-01-04T15:48:00.331Z,37.70
2019-01-04T15:50:29.882Z,44.17
2019-01-04T15:53:01.319Z,34.70
2019-01-04T15:55:30.903Z,37.97
2019-01-04T15:58:00.346Z,41.47
2019-01-04T16:00:29.715Z,25.53
2019-01-04T16:02:59.174Z,32.90
2019-01-04T16:05:28.722Z,33.83
2019-01-04T16:07:58.705Z,42.47
2019-01-04T16:10:28.025Z,44.57
2019-01-04T16:12:57.440Z,38.07
2019-01-04T16:15:28.534Z,24.77
2019-01-04T16:17:57.948Z,38.27
2019-01-04T16:20:27.556Z,27.90
2019-01-04T16:22:57.165Z,20.47
2019-01-04T16:25:26.573Z,31.40
2019-01-04T16:27:56.065Z,32.23
2019-01-04T16:30:25.835Z,38.00
2019-01-04T16:32:55.720Z,40.70
2019-01-04T16:35:25.285Z,38.87
2019-01-04T16:37:55.183Z,41.20
2019-01-04T16:40:24.613Z,40.30
2019-01-04T16:42:54.412Z,41.97
2019-01-04T16:45:23.880Z,44.03
2019-01-04T16:47:55.621Z,38.93
2019-01-04T16:50:25.431Z,42.27
2019-01-04T16:52:59.420Z,47.07
2019-01-04T16:55:26.175Z,45.03
2019-01-04T16:57:55.577Z,39.77
2019-01-04T17:00:25.314Z,47.40
2019-01-04T17:02:55.039Z,51.67
2019-01-04T17:05:24.776Z,49.90
2019-01-04T17:07:54.157Z,31.70
2019-01-04T17:10:23.881Z,48.87
2019-01-04T17:12:53.482Z,48.87
2019-01-04T17:15:23.461Z,41.87
2019-01-04T17:17:52.792Z,38.60
2019-01-04T17:20:22.389Z,48.60
2019-01-04T17:22:52.335Z,45.13
2019-01-04T17:25:21.730Z,39.07
2019-01-04T17:27:51.132Z,43.83
2019-01-04T17:30:20.662Z,43.27
2019-01-04T17:32:50.065Z,49.60
2019-01-04T17:35:19.402Z,49.67
2019-01-04T17:37:49.459Z,40.00
2019-01-04T17:40:19.224Z,30.20
2019-01-04T17:42:49.085Z,32.83
2019-01-04T17:45:18.903Z,40.53
2019-01-04T17:47:48.735Z,39.03
2019-01-04T17:50:18.619Z,47.43
2019-01-04T17:52:48.093Z,38.87
2019-01-04T17:55:18.143Z,42.77
2019-01-04T17:57:47.981Z,57.93
2019-01-04T18:00:17.975Z,35.97
2019-01-04T18:02:47.762Z,44.27
2019-01-04T18:05:17.580Z,42.97
2019-01-04T18:07:47.383Z,25.93
2019-01-04T18:10:16.930Z,48.90
2019-01-04T18:12:46.694Z,49.70
2019-01-04T18:15:16.154Z,42.30
2019-01-04T18:17:45.586Z,51.77
2019-01-04T18:20:15.099Z,58.63
2019-01-04T18:22:44.519Z,52.10
2019-01-04T18:25:14.141Z,56.40
2019-01-04T18:27:44.077Z,57.03
2019-01-04T18:30:13.798Z,47.37
2019-01-04T18:32:43.199Z,43.97
2019-01-04T18:35:13.043Z,39.23
2019-01-04T18:37:42.723Z,54.37
2019-01-04T18:40:12.166Z,51.03
2019-01-04T18:42:41.609Z,51.53
2019-01-04T18:45:11.092Z,50.53
2019-01-04T18:47:41.038Z,48.40
2019-01-04T18:50:12.770Z,46.47
2019-01-04T18:52:42.125Z,57.07
2019-01-04T18:55:11.913Z,53.13
2019-01-04T18:57:41.476Z,41.17
2019-01-04T19:00:11.864Z,60.73
2019-01-04T19:02:41.503Z,54.43
2019-01-04T19:05:11.406Z,39.73
2019-01-04T19:07:40.881Z,56.97
2019-01-04T19:10:10.310Z,60.43
2019-01-04T19:12:40.455Z,53.50
2019-01-04T19:15:10.740Z,57.23
2019-01-04T19:17:40.376Z,58.40
2019-01-04T19:20:09.970Z,59.07
2019-01-04T19:22:39.419Z,56.50
2019-01-04T19:25:09.290Z,59.43
2019-01-04T19:27:38.686Z,51.03
2019-01-04T19:30:08.844Z,46.77
2019-01-04T19:32:38.727Z,54.27
2019-01-04T19:35:08.063Z,57.77
2019-01-04T19:37:38.803Z,51.17
2019-01-04T19:40:09.766Z,55.60
2019-01-04T19:42:39.308Z,56.83
2019-01-04T19:45:08.668Z,54.73
2019-01-04T19:47:38.533Z,62.07
2019-01-04T19:50:16.431Z,65.07
2019-01-04T19:52:46.062Z,57.30
2019-01-04T19:55:16.659Z,55.77
2019-01-04T19:57:47.084Z,56.63
2019-01-04T20:00:17.077Z,62.23
2019-01-04T20:02:47.857Z,62.77
2019-01-04T20:05:25.543Z,60.50
2019-01-04T20:08:24.340Z,60.90
2019-01-04T20:11:48.415Z,68.43
2019-01-04T20:14:58.495Z,53.10
2019-01-04T20:17:29.860Z,59.43
2019-01-04T20:20:03.767Z,64.87
2019-01-04T20:22:51.226Z,65.87
2019-01-04T20:25:43.758Z,59.20
2019-01-04T20:28:21.310Z,58.77
2019-01-04T20:31:01.432Z,69.53
2019-01-04T20:33:49.344Z,34.43
2019-01-04T20:36:36.842Z,53.27
2019-01-04T20:39:26.406Z,57.57
2019-01-04T20:42:14.236Z,60.30
2019-01-04T20:45:01.844Z,65.50
2019-01-04T20:47:49.425Z,61.10
2019-01-04T20:50:36.028Z,68.87
2019-01-04T20:53:23.504Z,62.87
2019-01-04T20:56:13.165Z,63.37
2019-01-04T20:58:44.296Z,62.40
2019-01-04T21:01:18.450Z,65.50
2019-01-04T21:03:55.767Z,69.97
2019-01-04T21:06:42.520Z,69.80
2019-01-04T21:09:29.843Z,69.60
2019-01-04T21:12:16.889Z,55.17
2019-01-04T21:14:57.223Z,71.30
2019-01-04T21:17:34.745Z,64.13
2019-01-04T21:20:18.373Z,60.93
2019-01-04T21:22:55.240Z,66.30
2019-01-04T21:25:26.572Z,68.17
2019-01-04T21:27:58.399Z,57.67
2019-01-04T21:30:32.430Z,59.67
2019-01-04T21:33:06.280Z,73.30
2019-01-04T21:35:53.364Z,58.37
2019-01-04T21:38:30.715Z,67.73
2019-01-04T21:41:11.009Z,71.27
2019-01-04T21:43:48.091Z,45.80
2019-01-04T21:46:34.062Z,49.90
2019-01-04T21:49:21.678Z,71.50
2019-01-04T21:51:53.094Z,55.30
2019-01-04T21:54:27.829Z,58.70
2019-01-04T21:57:15.662Z,75.07
2019-01-04T22:00:02.932Z,74.50
2019-01-04T22:02:36.947Z,70.63
2019-01-04T22:05:16.944Z,64.70
2019-01-04T22:07:48.214Z,66.33
2019-01-04T22:10:32.011Z,54.97
2019-01-04T22:13:19.550Z,77.70
2019-01-04T22:15:54.582Z,63.87
2019-01-04T22:18:42.324Z,74.30
2019-01-04T22:21:25.883Z,82.87
2019-01-04T22:24:09.052Z,65.80
2019-01-04T22:26:57.103Z,74.33
2019-01-04T22:29:28.204Z,67.97
2019-01-04T22:32:11.787Z,71.90
2019-01-04T22:34:59.165Z,69.27
2019-01-04T22:37:47.026Z,72.90
2019-01-04T22:40:18.055Z,71.60
2019-01-04T22:42:55.200Z,59.13
2019-01-04T22:45:32.388Z,75.53
2019-01-04T22:48:05.807Z,62.97
2019-01-04T22:50:52.618Z,67.00
2019-01-04T22:53:29.688Z,54.43
2019-01-04T22:56:17.073Z,70.13
2019-01-04T22:59:00.160Z,57.17
2019-01-04T23:01:37.030Z,62.93
2019-01-04T23:04:16.699Z,64.30
2019-01-04T23:07:02.664Z,72.80
2019-01-04T23:09:39.706Z,71.50
2019-01-04T23:12:13.615Z,52.63
2019-01-04T23:14:50.821Z,60.77
2019-01-04T23:17:21.843Z,62.00
2019-01-04T23:19:55.856Z,64.07
2019-01-04T23:22:49.221Z,57.77
2019-01-04T23:25:25.905Z,61.97
2019-01-04T23:28:13.466Z,58.63
2019-01-04T23:30:50.999Z,51.57
2019-01-04T23:33:24.732Z,60.37
2019-01-04T23:36:04.963Z,71.30
2019-01-04T23:38:36.065Z,52.27
2019-01-04T23:41:19.245Z,69.07
2019-01-04T23:43:50.300Z,72.43
2019-01-04T23:46:24.722Z,22.00
2019-01-04T23:49:14.019Z,62.53
2019-01-04T23:51:45.428Z,68.47
2019-01-04T23:54:31.534Z,54.37
2019-01-04T23:57:19.078Z,64.57
